sensor_id;sensor_type;location;lat;lon;timestamp;P1;durP1;ratioP1;P2;durP2;ratioP2
37241;SDS011;23135;51.078;12.108;2022-11-15T00:00:44;16.95;;;10.02;;
37241;SDS011;23135;51.078;12.108;2022-11-15T00:03:09;20.33;;;9.63;;
37241;SDS011;23135;51.078;12.108;2022-11-15T00:05:38;24.38;;;12.02;;
37241;SDS011;23135;51.078;12.108;2022-11-15T00:08:03;24.33;;;9.80;;
37241;SDS011;23135;51.078;12.108;2022-11-15T00:10:29;19.52;;;10.48;;
37241;SDS011;23135;51.078;12.108;2022-11-15T00:12:54;20.25;;;10.65;;
37241;SDS011;23135;51.078;12.108;2022-11-15T00:15:20;18.08;;;9.93;;
37241;SDS011;23135;51.078;12.108;2022-11-15T00:17:48;26.10;;;11.32;;
37241;SDS011;23135;51.078;12.108;2022-11-15T00:20:14;23.33;;;11.68;;
37241;SDS011;23135;51.078;12.108;2022-11-15T00:22:40;17.60;;;9.00;;
37241;SDS011;23135;51.078;12.108;2022-11-15T00:25:06;18.08;;;9.90;;
37241;SDS011;23135;51.078;12.108;2022-11-15T00:27:31;15.30;;;8.77;;
37241;SDS011;23135;51.078;12.108;2022-11-15T00:29:57;19.35;;;10.32;;
37241;SDS011;23135;51.078;12.108;2022-11-15T00:32:23;13.25;;;8.25;;
37241;SDS011;23135;51.078;12.108;2022-11-15T00:34:48;16.48;;;8.23;;
37241;SDS011;23135;51.078;12.108;2022-11-15T00:37:14;15.35;;;9.23;;
37241;SDS011;23135;51.078;12.108;2022-11-15T00:39:39;21.73;;;10.95;;
37241;SDS011;23135;51.078;12.108;2022-11-15T00:42:05;14.50;;;8.35;;
37241;SDS011;23135;51.078;12.108;2022-11-15T00:44:31;19.60;;;9.52;;
37241;SDS011;23135;51.078;12.108;2022-11-15T00:46:56;16.42;;;8.60;;
37241;SDS011;23135;51.078;12.108;2022-11-15T00:49:22;16.85;;;9.23;;
37241;SDS011;23135;51.078;12.108;2022-11-15T00:51:47;15.88;;;8.95;;
37241;SDS011;23135;51.078;12.108;2022-11-15T00:54:13;14.77;;;8.60;;
37241;SDS011;23135;51.078;12.108;2022-11-15T00:56:39;15.15;;;8.50;;
37241;SDS011;23135;51.078;12.108;2022-11-15T00:59:04;19.83;;;9.35;;
37241;SDS011;23135;51.078;12.108;2022-11-15T01:01:30;15.93;;;8.85;;
37241;SDS011;23135;51.078;12.108;2022-11-15T01:03:56;17.52;;;7.78;;
37241;SDS011;23135;51.078;12.108;2022-11-15T01:06:22;14.88;;;8.73;;
37241;SDS011;23135;51.078;12.108;2022-11-15T01:08:47;16.33;;;8.38;;
37241;SDS011;23135;51.078;12.108;2022-11-15T01:11:13;18.40;;;9.70;;
37241;SDS011;23135;51.078;12.108;2022-11-15T01:13:39;21.95;;;9.18;;
37241;SDS011;23135;51.078;12.108;2022-11-15T01:16:12;15.90;;;8.45;;
37241;SDS011;23135;51.078;12.108;2022-11-15T01:18:39;14.20;;;8.93;;
37241;SDS011;23135;51.078;12.108;2022-11-15T01:21:09;16.52;;;9.15;;
37241;SDS011;23135;51.078;12.108;2022-11-15T01:23:36;18.23;;;9.13;;
37241;SDS011;23135;51.078;12.108;2022-11-15T01:26:03;12.88;;;7.55;;
37241;SDS011;23135;51.078;12.108;2022-11-15T01:31:02;10.47;;;5.93;;
37241;SDS011;23135;51.078;12.108;2022-11-15T01:33:29;16.55;;;8.63;;
37241;SDS011;23135;51.078;12.108;2022-11-15T01:35:55;14.57;;;8.23;;
37241;SDS011;23135;51.078;12.108;2022-11-15T01:38:21;14.07;;;8.82;;
37241;SDS011;23135;51.078;12.108;2022-11-15T01:40:47;13.93;;;8.43;;
37241;SDS011;23135;51.078;12.108;2022-11-15T01:43:23;16.98;;;9.07;;
37241;SDS011;23135;51.078;12.108;2022-11-15T01:46:26;15.32;;;8.70;;
37241;SDS011;23135;51.078;12.108;2022-11-15T01:48:46;13.18;;;7.28;;
37241;SDS011;23135;51.078;12.108;2022-11-15T01:51:13;17.08;;;9.27;;
37241;SDS011;23135;51.078;12.108;2022-11-15T01:53:41;15.90;;;8.73;;
37241;SDS011;23135;51.078;12.108;2022-11-15T01:56:12;18.15;;;11.13;;
37241;SDS011;23135;51.078;12.108;2022-11-15T01:58:41;14.52;;;8.45;;
37241;SDS011;23135;51.078;12.108;2022-11-15T02:01:07;19.80;;;9.77;;
37241;SDS011;23135;51.078;12.108;2022-11-15T02:03:39;21.92;;;11.50;;
37241;SDS011;23135;51.078;12.108;2022-11-15T02:06:11;14.93;;;9.80;;
37241;SDS011;23135;51.078;12.108;2022-11-15T02:08:37;18.65;;;9.85;;
37241;SDS011;23135;51.078;12.108;2022-11-15T02:11:04;21.90;;;10.38;;
37241;SDS011;23135;51.078;12.108;2022-11-15T02:13:33;20.38;;;10.10;;
37241;SDS011;23135;51.078;12.108;2022-11-15T02:16:46;23.70;;;11.45;;
37241;SDS011;23135;51.078;12.108;2022-11-15T02:33:03;16.30;;;8.30;;
37241;SDS011;23135;51.078;12.108;2022-11-15T02:36:01;15.20;;;7.55;;
37241;SDS011;23135;51.078;12.108;2022-11-15T02:41:28;16.40;;;7.97;;
37241;SDS011;23135;51.078;12.108;2022-11-15T02:44:07;15.00;;;7.85;;
37241;SDS011;23135;51.078;12.108;2022-11-15T02:49:37;17.10;;;8.25;;
37241;SDS011;23135;51.078;12.108;2022-11-15T02:52:15;17.65;;;8.52;;
37241;SDS011;23135;51.078;12.108;2022-11-15T02:54:42;13.45;;;7.00;;
37241;SDS011;23135;51.078;12.108;2022-11-15T02:57:12;15.27;;;8.85;;
37241;SDS011;23135;51.078;12.108;2022-11-15T03:08:43;14.20;;;7.45;;
37241;SDS011;23135;51.078;12.108;2022-11-15T03:13:57;11.07;;;5.75;;
37241;SDS011;23135;51.078;12.108;2022-11-15T03:19:25;12.18;;;7.25;;
37241;SDS011;23135;51.078;12.108;2022-11-15T03:21:58;11.95;;;6.55;;
37241;SDS011;23135;51.078;12.108;2022-11-15T03:24:28;11.95;;;6.68;;
37241;SDS011;23135;51.078;12.108;2022-11-15T03:26:57;9.43;;;4.90;;
37241;SDS011;23135;51.078;12.108;2022-11-15T03:29:27;14.63;;;6.78;;
37241;SDS011;23135;51.078;12.108;2022-11-15T03:31:58;15.68;;;7.53;;
37241;SDS011;23135;51.078;12.108;2022-11-15T03:34:29;13.05;;;5.47;;
37241;SDS011;23135;51.078;12.108;2022-11-15T03:37:08;13.48;;;7.15;;
37241;SDS011;23135;51.078;12.108;2022-11-15T03:39:37;16.23;;;7.00;;
37241;SDS011;23135;51.078;12.108;2022-11-15T03:42:08;12.75;;;6.35;;
37241;SDS011;23135;51.078;12.108;2022-11-15T03:45:08;13.27;;;7.03;;
37241;SDS011;23135;51.078;12.108;2022-11-15T03:47:43;10.02;;;5.90;;
37241;SDS011;23135;51.078;12.108;2022-11-15T03:50:15;12.10;;;6.25;;
37241;SDS011;23135;51.078;12.108;2022-11-15T03:52:47;13.43;;;5.63;;
37241;SDS011;23135;51.078;12.108;2022-11-15T03:55:18;11.90;;;5.78;;
37241;SDS011;23135;51.078;12.108;2022-11-15T03:57:45;9.23;;;5.93;;
37241;SDS011;23135;51.078;12.108;2022-11-15T04:00:13;15.90;;;5.93;;
37241;SDS011;23135;51.078;12.108;2022-11-15T04:02:39;7.22;;;4.03;;
37241;SDS011;23135;51.078;12.108;2022-11-15T04:05:04;9.20;;;5.55;;
37241;SDS011;23135;51.078;12.108;2022-11-15T04:07:30;12.30;;;5.82;;
37241;SDS011;23135;51.078;12.108;2022-11-15T04:09:56;7.35;;;4.78;;
37241;SDS011;23135;51.078;12.108;2022-11-15T04:12:28;13.37;;;6.03;;
37241;SDS011;23135;51.078;12.108;2022-11-15T04:15:02;11.02;;;5.07;;
37241;SDS011;23135;51.078;12.108;2022-11-15T04:20:04;8.93;;;4.75;;
37241;SDS011;23135;51.078;12.108;2022-11-15T04:22:57;8.10;;;4.60;;
37241;SDS011;23135;51.078;12.108;2022-11-15T04:25:43;8.98;;;4.55;;
37241;SDS011;23135;51.078;12.108;2022-11-15T04:28:10;15.77;;;6.18;;
37241;SDS011;23135;51.078;12.108;2022-11-15T04:30:36;9.15;;;4.95;;
37241;SDS011;23135;51.078;12.108;2022-11-15T04:33:02;10.30;;;5.53;;
37241;SDS011;23135;51.078;12.108;2022-11-15T04:35:28;8.75;;;5.05;;
37241;SDS011;23135;51.078;12.108;2022-11-15T04:37:54;8.90;;;5.25;;
37241;SDS011;23135;51.078;12.108;2022-11-15T04:40:20;12.70;;;5.55;;
37241;SDS011;23135;51.078;12.108;2022-11-15T04:42:46;8.93;;;4.72;;
37241;SDS011;23135;51.078;12.108;2022-11-15T04:45:12;9.60;;;4.72;;
37241;SDS011;23135;51.078;12.108;2022-11-15T04:47:37;8.55;;;4.97;;
37241;SDS011;23135;51.078;12.108;2022-11-15T04:50:03;8.98;;;5.05;;
37241;SDS011;23135;51.078;12.108;2022-11-15T04:52:29;8.20;;;5.07;;
37241;SDS011;23135;51.078;12.108;2022-11-15T04:54:54;8.88;;;4.65;;
37241;SDS011;23135;51.078;12.108;2022-11-15T04:57:20;10.43;;;5.65;;
37241;SDS011;23135;51.078;12.108;2022-11-15T04:59:46;14.75;;;5.60;;
37241;SDS011;23135;51.078;12.108;2022-11-15T05:02:12;5.47;;;4.13;;
37241;SDS011;23135;51.078;12.108;2022-11-15T05:04:37;9.80;;;4.82;;
37241;SDS011;23135;51.078;12.108;2022-11-15T05:07:03;10.88;;;5.75;;
37241;SDS011;23135;51.078;12.108;2022-11-15T05:09:31;8.15;;;4.20;;
37241;SDS011;23135;51.078;12.108;2022-11-15T05:11:57;11.57;;;5.45;;
37241;SDS011;23135;51.078;12.108;2022-11-15T05:14:22;9.95;;;4.80;;
37241;SDS011;23135;51.078;12.108;2022-11-15T05:16:48;10.05;;;4.53;;
37241;SDS011;23135;51.078;12.108;2022-11-15T05:19:13;9.07;;;5.55;;
37241;SDS011;23135;51.078;12.108;2022-11-15T05:21:39;10.15;;;5.20;;
37241;SDS011;23135;51.078;12.108;2022-11-15T05:24:05;7.75;;;4.88;;
37241;SDS011;23135;51.078;12.108;2022-11-15T05:26:31;13.30;;;6.07;;
37241;SDS011;23135;51.078;12.108;2022-11-15T05:28:57;12.27;;;6.55;;
37241;SDS011;23135;51.078;12.108;2022-11-15T05:31:24;13.43;;;6.00;;
37241;SDS011;23135;51.078;12.108;2022-11-15T05:33:50;15.23;;;6.80;;
37241;SDS011;23135;51.078;12.108;2022-11-15T05:38:51;16.27;;;7.75;;
37241;SDS011;23135;51.078;12.108;2022-11-15T05:41:17;18.38;;;6.57;;
37241;SDS011;23135;51.078;12.108;2022-11-15T05:43:45;14.23;;;6.90;;
37241;SDS011;23135;51.078;12.108;2022-11-15T05:46:13;15.55;;;6.57;;
37241;SDS011;23135;51.078;12.108;2022-11-15T05:48:39;17.75;;;8.90;;
37241;SDS011;23135;51.078;12.108;2022-11-15T05:51:08;15.70;;;8.55;;
37241;SDS011;23135;51.078;12.108;2022-11-15T05:53:34;21.70;;;8.93;;
37241;SDS011;23135;51.078;12.108;2022-11-15T05:56:02;17.80;;;8.27;;
37241;SDS011;23135;51.078;12.108;2022-11-15T05:58:30;17.77;;;7.93;;
37241;SDS011;23135;51.078;12.108;2022-11-15T06:00:57;13.88;;;7.80;;
37241;SDS011;23135;51.078;12.108;2022-11-15T06:03:23;17.92;;;7.50;;
37241;SDS011;23135;51.078;12.108;2022-11-15T06:05:48;17.60;;;7.85;;
37241;SDS011;23135;51.078;12.108;2022-11-15T06:08:14;18.52;;;8.32;;
37241;SDS011;23135;51.078;12.108;2022-11-15T06:10:39;18.73;;;7.38;;
37241;SDS011;23135;51.078;12.108;2022-11-15T06:13:05;14.50;;;7.55;;
37241;SDS011;23135;51.078;12.108;2022-11-15T06:15:34;13.80;;;6.78;;
37241;SDS011;23135;51.078;12.108;2022-11-15T06:17:59;11.85;;;5.80;;
37241;SDS011;23135;51.078;12.108;2022-11-15T06:20:26;9.02;;;4.78;;
37241;SDS011;23135;51.078;12.108;2022-11-15T06:23:00;9.27;;;4.55;;
37241;SDS011;23135;51.078;12.108;2022-11-15T06:25:27;9.40;;;4.75;;
37241;SDS011;23135;51.078;12.108;2022-11-15T06:27:54;10.60;;;6.20;;
37241;SDS011;23135;51.078;12.108;2022-11-15T06:30:21;10.32;;;5.57;;
37241;SDS011;23135;51.078;12.108;2022-11-15T06:32:48;11.70;;;5.20;;
37241;SDS011;23135;51.078;12.108;2022-11-15T06:35:13;10.73;;;6.05;;
37241;SDS011;23135;51.078;12.108;2022-11-15T06:37:40;13.18;;;5.43;;
37241;SDS011;23135;51.078;12.108;2022-11-15T06:40:06;9.65;;;5.03;;
37241;SDS011;23135;51.078;12.108;2022-11-15T06:42:33;9.10;;;5.28;;
37241;SDS011;23135;51.078;12.108;2022-11-15T06:44:59;9.98;;;4.40;;
37241;SDS011;23135;51.078;12.108;2022-11-15T06:47:24;8.30;;;5.35;;
37241;SDS011;23135;51.078;12.108;2022-11-15T06:49:50;16.75;;;6.30;;
37241;SDS011;23135;51.078;12.108;2022-11-15T06:52:16;12.10;;;5.60;;
37241;SDS011;23135;51.078;12.108;2022-11-15T06:54:44;11.70;;;4.38;;
37241;SDS011;23135;51.078;12.108;2022-11-15T06:57:09;12.55;;;6.43;;
37241;SDS011;23135;51.078;12.108;2022-11-15T06:59:35;12.23;;;5.95;;
37241;SDS011;23135;51.078;12.108;2022-11-15T07:02:01;13.65;;;5.38;;
37241;SDS011;23135;51.078;12.108;2022-11-15T07:04:27;9.68;;;5.15;;
37241;SDS011;23135;51.078;12.108;2022-11-15T07:06:53;10.82;;;5.78;;
37241;SDS011;23135;51.078;12.108;2022-11-15T07:09:18;10.40;;;5.55;;
37241;SDS011;23135;51.078;12.108;2022-11-15T07:11:44;8.70;;;3.92;;
37241;SDS011;23135;51.078;12.108;2022-11-15T07:14:09;10.35;;;5.20;;
37241;SDS011;23135;51.078;12.108;2022-11-15T07:16:36;8.13;;;4.10;;
37241;SDS011;23135;51.078;12.108;2022-11-15T07:19:02;8.27;;;3.42;;
37241;SDS011;23135;51.078;12.108;2022-11-15T07:21:28;6.00;;;3.72;;
37241;SDS011;23135;51.078;12.108;2022-11-15T07:23:53;5.80;;;3.78;;
37241;SDS011;23135;51.078;12.108;2022-11-15T07:26:19;7.78;;;3.85;;
37241;SDS011;23135;51.078;12.108;2022-11-15T07:28:45;10.45;;;3.85;;
37241;SDS011;23135;51.078;12.108;2022-11-15T07:31:11;13.32;;;4.47;;
37241;SDS011;23135;51.078;12.108;2022-11-15T07:33:36;7.95;;;3.22;;
37241;SDS011;23135;51.078;12.108;2022-11-15T07:36:03;10.00;;;4.53;;
37241;SDS011;23135;51.078;12.108;2022-11-15T07:38:30;5.55;;;3.03;;
37241;SDS011;23135;51.078;12.108;2022-11-15T07:40:57;5.53;;;3.95;;
37241;SDS011;23135;51.078;12.108;2022-11-15T07:43:24;8.90;;;4.45;;
37241;SDS011;23135;51.078;12.108;2022-11-15T07:45:49;9.15;;;3.60;;
37241;SDS011;23135;51.078;12.108;2022-11-15T07:48:15;8.32;;;3.65;;
37241;SDS011;23135;51.078;12.108;2022-11-15T07:50:41;11.15;;;3.55;;
37241;SDS011;23135;51.078;12.108;2022-11-15T07:53:08;5.50;;;3.78;;
37241;SDS011;23135;51.078;12.108;2022-11-15T07:55:35;7.47;;;4.30;;
37241;SDS011;23135;51.078;12.108;2022-11-15T07:58:01;7.15;;;4.30;;
37241;SDS011;23135;51.078;12.108;2022-11-15T08:00:28;6.40;;;3.42;;
37241;SDS011;23135;51.078;12.108;2022-11-15T08:03:16;9.90;;;3.85;;
37241;SDS011;23135;51.078;12.108;2022-11-15T08:05:41;5.88;;;3.08;;
37241;SDS011;23135;51.078;12.108;2022-11-15T08:08:08;9.20;;;3.50;;
37241;SDS011;23135;51.078;12.108;2022-11-15T08:10:35;5.78;;;3.80;;
37241;SDS011;23135;51.078;12.108;2022-11-15T08:13:03;11.38;;;4.38;;
37241;SDS011;23135;51.078;12.108;2022-11-15T08:15:30;4.75;;;3.00;;
37241;SDS011;23135;51.078;12.108;2022-11-15T08:17:57;5.95;;;3.55;;
37241;SDS011;23135;51.078;12.108;2022-11-15T08:20:25;9.80;;;3.60;;
37241;SDS011;23135;51.078;12.108;2022-11-15T08:22:54;8.52;;;3.28;;
37241;SDS011;23135;51.078;12.108;2022-11-15T08:25:21;7.65;;;3.08;;
37241;SDS011;23135;51.078;12.108;2022-11-15T08:27:50;4.82;;;2.40;;
37241;SDS011;23135;51.078;12.108;2022-11-15T08:30:16;4.68;;;2.50;;
37241;SDS011;23135;51.078;12.108;2022-11-15T08:32:42;5.25;;;2.80;;
37241;SDS011;23135;51.078;12.108;2022-11-15T08:35:08;4.05;;;2.03;;
37241;SDS011;23135;51.078;12.108;2022-11-15T08:37:34;5.18;;;2.45;;
37241;SDS011;23135;51.078;12.108;2022-11-15T08:40:00;3.95;;;2.22;;
37241;SDS011;23135;51.078;12.108;2022-11-15T08:42:26;8.60;;;3.47;;
37241;SDS011;23135;51.078;12.108;2022-11-15T08:44:51;5.07;;;3.72;;
37241;SDS011;23135;51.078;12.108;2022-11-15T08:47:17;4.88;;;3.08;;
37241;SDS011;23135;51.078;12.108;2022-11-15T08:49:42;6.32;;;3.45;;
37241;SDS011;23135;51.078;12.108;2022-11-15T08:52:08;9.50;;;4.50;;
37241;SDS011;23135;51.078;12.108;2022-11-15T08:54:34;29.10;;;11.80;;
37241;SDS011;23135;51.078;12.108;2022-11-15T08:56:59;10.13;;;4.75;;
37241;SDS011;23135;51.078;12.108;2022-11-15T08:59:25;8.80;;;3.50;;
37241;SDS011;23135;51.078;12.108;2022-11-15T09:01:51;30.52;;;12.95;;
37241;SDS011;23135;51.078;12.108;2022-11-15T09:04:16;8.45;;;3.85;;
37241;SDS011;23135;51.078;12.108;2022-11-15T09:06:42;6.20;;;3.15;;
37241;SDS011;23135;51.078;12.108;2022-11-15T09:09:08;4.32;;;2.30;;
37241;SDS011;23135;51.078;12.108;2022-11-15T09:11:33;5.20;;;2.35;;
37241;SDS011;23135;51.078;12.108;2022-11-15T09:13:59;4.45;;;2.63;;
37241;SDS011;23135;51.078;12.108;2022-11-15T09:16:25;5.38;;;2.22;;
37241;SDS011;23135;51.078;12.108;2022-11-15T09:18:50;6.15;;;2.75;;
37241;SDS011;23135;51.078;12.108;2022-11-15T09:21:17;3.33;;;1.83;;
37241;SDS011;23135;51.078;12.108;2022-11-15T09:23:42;6.22;;;2.30;;
37241;SDS011;23135;51.078;12.108;2022-11-15T09:26:08;5.93;;;3.08;;
37241;SDS011;23135;51.078;12.108;2022-11-15T09:28:34;5.45;;;3.42;;
37241;SDS011;23135;51.078;12.108;2022-11-15T09:31:01;5.10;;;2.00;;
37241;SDS011;23135;51.078;12.108;2022-11-15T09:33:30;5.78;;;1.92;;
37241;SDS011;23135;51.078;12.108;2022-11-15T09:36:29;4.43;;;2.72;;
37241;SDS011;23135;51.078;12.108;2022-11-15T09:38:48;4.90;;;2.70;;
37241;SDS011;23135;51.078;12.108;2022-11-15T09:43:49;10.40;;;6.80;;
37241;SDS011;23135;51.078;12.108;2022-11-15T09:49:30;7.78;;;2.78;;
37241;SDS011;23135;51.078;12.108;2022-11-15T09:51:56;5.45;;;3.50;;
37241;SDS011;23135;51.078;12.108;2022-11-15T09:54:33;6.15;;;2.30;;
37241;SDS011;23135;51.078;12.108;2022-11-15T09:57:16;3.90;;;1.95;;
37241;SDS011;23135;51.078;12.108;2022-11-15T10:05:31;3.08;;;2.78;;
37241;SDS011;23135;51.078;12.108;2022-11-15T10:08:10;25.08;;;19.75;;
37241;SDS011;23135;51.078;12.108;2022-11-15T10:10:49;6.28;;;5.18;;
37241;SDS011;23135;51.078;12.108;2022-11-15T10:13:25;5.22;;;4.30;;
37241;SDS011;23135;51.078;12.108;2022-11-15T10:15:54;5.47;;;3.95;;
37241;SDS011;23135;51.078;12.108;2022-11-15T10:18:53;3.08;;;1.45;;
37241;SDS011;23135;51.078;12.108;2022-11-15T10:22:14;7.85;;;1.88;;
37241;SDS011;23135;51.078;12.108;2022-11-15T10:24:26;7.07;;;2.40;;
37241;SDS011;23135;51.078;12.108;2022-11-15T10:26:54;0.95;;;0.70;;
37241;SDS011;23135;51.078;12.108;2022-11-15T10:29:21;8.63;;;2.33;;
37241;SDS011;23135;51.078;12.108;2022-11-15T10:31:48;7.53;;;3.17;;
37241;SDS011;23135;51.078;12.108;2022-11-15T10:34:18;9.43;;;4.80;;
37241;SDS011;23135;51.078;12.108;2022-11-15T10:36:46;7.53;;;2.22;;
37241;SDS011;23135;51.078;12.108;2022-11-15T10:39:22;2.72;;;1.00;;
37241;SDS011;23135;51.078;12.108;2022-11-15T10:41:48;7.90;;;2.35;;
37241;SDS011;23135;51.078;12.108;2022-11-15T10:46:46;5.63;;;3.75;;
37241;SDS011;23135;51.078;12.108;2022-11-15T10:49:19;14.77;;;9.32;;
37241;SDS011;23135;51.078;12.108;2022-11-15T10:51:47;16.50;;;6.22;;
37241;SDS011;23135;51.078;12.108;2022-11-15T10:54:27;9.32;;;3.75;;
37241;SDS011;23135;51.078;12.108;2022-11-15T10:56:59;6.25;;;2.28;;
37241;SDS011;23135;51.078;12.108;2022-11-15T10:59:31;5.97;;;2.17;;
37241;SDS011;23135;51.078;12.108;2022-11-15T11:02:00;3.53;;;0.88;;
37241;SDS011;23135;51.078;12.108;2022-11-15T11:04:26;1.95;;;1.02;;
37241;SDS011;23135;51.078;12.108;2022-11-15T11:06:58;2.00;;;0.95;;
37241;SDS011;23135;51.078;12.108;2022-11-15T11:11:58;3.50;;;1.27;;
37241;SDS011;23135;51.078;12.108;2022-11-15T11:14:29;2.85;;;1.13;;
37241;SDS011;23135;51.078;12.108;2022-11-15T11:19:49;4.95;;;1.88;;
37241;SDS011;23135;51.078;12.108;2022-11-15T11:25:56;4.72;;;3.00;;
37241;SDS011;23135;51.078;12.108;2022-11-15T11:28:55;6.97;;;2.72;;
37241;SDS011;23135;51.078;12.108;2022-11-15T11:36:44;5.70;;;1.40;;
37241;SDS011;23135;51.078;12.108;2022-11-15T11:40:01;5.63;;;1.05;;
37241;SDS011;23135;51.078;12.108;2022-11-15T11:48:14;4.68;;;1.33;;
37241;SDS011;23135;51.078;12.108;2022-11-15T11:50:43;1.70;;;1.05;;
37241;SDS011;23135;51.078;12.108;2022-11-15T11:53:35;3.42;;;1.00;;
37241;SDS011;23135;51.078;12.108;2022-11-15T11:56:29;2.42;;;0.80;;
37241;SDS011;23135;51.078;12.108;2022-11-15T11:58:59;8.48;;;2.03;;
37241;SDS011;23135;51.078;12.108;2022-11-15T12:01:42;7.22;;;3.58;;
37241;SDS011;23135;51.078;12.108;2022-11-15T12:06:54;5.38;;;3.53;;
37241;SDS011;23135;51.078;12.108;2022-11-15T12:14:55;1.05;;;0.55;;
37241;SDS011;23135;51.078;12.108;2022-11-15T12:17:34;2.83;;;1.45;;
37241;SDS011;23135;51.078;12.108;2022-11-15T12:20:04;4.80;;;0.93;;
37241;SDS011;23135;51.078;12.108;2022-11-15T12:25:13;6.82;;;4.15;;
37241;SDS011;23135;51.078;12.108;2022-11-15T12:28:04;9.40;;;4.95;;
37241;SDS011;23135;51.078;12.108;2022-11-15T12:31:26;4.97;;;2.72;;
37241;SDS011;23135;51.078;12.108;2022-11-15T12:33:38;3.40;;;1.10;;
37241;SDS011;23135;51.078;12.108;2022-11-15T12:36:12;4.68;;;1.60;;
37241;SDS011;23135;51.078;12.108;2022-11-15T12:39:06;3.90;;;0.90;;
37241;SDS011;23135;51.078;12.108;2022-11-15T12:44:03;4.63;;;1.92;;
37241;SDS011;23135;51.078;12.108;2022-11-15T13:02:27;6.65;;;1.00;;
37241;SDS011;23135;51.078;12.108;2022-11-15T13:22:43;2.53;;;0.63;;
37241;SDS011;23135;51.078;12.108;2022-11-15T13:27:56;4.70;;;0.93;;
37241;SDS011;23135;51.078;12.108;2022-11-15T13:30:27;1.33;;;0.70;;
37241;SDS011;23135;51.078;12.108;2022-11-15T13:32:54;1.67;;;0.95;;
37241;SDS011;23135;51.078;12.108;2022-11-15T13:35:23;2.53;;;0.70;;
37241;SDS011;23135;51.078;12.108;2022-11-15T13:37:51;4.55;;;0.73;;
37241;SDS011;23135;51.078;12.108;2022-11-15T13:40:20;1.50;;;0.75;;
37241;SDS011;23135;51.078;12.108;2022-11-15T13:42:46;1.65;;;0.82;;
37241;SDS011;23135;51.078;12.108;2022-11-15T13:45:13;7.38;;;0.80;;
37241;SDS011;23135;51.078;12.108;2022-11-15T13:47:41;3.88;;;0.70;;
37241;SDS011;23135;51.078;12.108;2022-11-15T13:50:11;3.00;;;0.65;;
37241;SDS011;23135;51.078;12.108;2022-11-15T13:52:37;1.85;;;0.38;;
37241;SDS011;23135;51.078;12.108;2022-11-15T13:55:18;4.35;;;0.60;;
37241;SDS011;23135;51.078;12.108;2022-11-15T13:57:59;1.55;;;0.70;;
37241;SDS011;23135;51.078;12.108;2022-11-15T14:00:37;1.58;;;0.40;;
37241;SDS011;23135;51.078;12.108;2022-11-15T14:05:41;2.55;;;0.22;;
37241;SDS011;23135;51.078;12.108;2022-11-15T14:10:41;1.55;;;0.20;;
37241;SDS011;23135;51.078;12.108;2022-11-15T14:14:02;3.50;;;0.20;;
37241;SDS011;23135;51.078;12.108;2022-11-15T14:16:18;2.15;;;0.52;;
37241;SDS011;23135;51.078;12.108;2022-11-15T14:18:54;0.95;;;0.40;;
37241;SDS011;23135;51.078;12.108;2022-11-15T14:23:49;14.40;;;5.63;;
37241;SDS011;23135;51.078;12.108;2022-11-15T14:26:26;6.43;;;5.10;;
37241;SDS011;23135;51.078;12.108;2022-11-15T14:28:52;3.08;;;2.55;;
37241;SDS011;23135;51.078;12.108;2022-11-15T14:31:17;1.60;;;1.25;;
37241;SDS011;23135;51.078;12.108;2022-11-15T14:33:45;1.58;;;0.50;;
37241;SDS011;23135;51.078;12.108;2022-11-15T14:36:12;2.55;;;0.90;;
37241;SDS011;23135;51.078;12.108;2022-11-15T14:38:38;1.27;;;0.28;;
37241;SDS011;23135;51.078;12.108;2022-11-15T14:41:04;5.10;;;4.07;;
37241;SDS011;23135;51.078;12.108;2022-11-15T14:43:31;15.57;;;8.75;;
37241;SDS011;23135;51.078;12.108;2022-11-15T14:45:56;19.58;;;11.20;;
37241;SDS011;23135;51.078;12.108;2022-11-15T14:48:22;12.43;;;4.25;;
37241;SDS011;23135;51.078;12.108;2022-11-15T14:50:48;11.68;;;7.15;;
37241;SDS011;23135;51.078;12.108;2022-11-15T14:53:17;18.23;;;8.60;;
37241;SDS011;23135;51.078;12.108;2022-11-15T14:55:43;13.50;;;8.63;;
37241;SDS011;23135;51.078;12.108;2022-11-15T14:58:09;11.23;;;6.78;;
37241;SDS011;23135;51.078;12.108;2022-11-15T15:00:36;20.80;;;9.40;;
37241;SDS011;23135;51.078;12.108;2022-11-15T15:03:04;9.30;;;6.35;;
37241;SDS011;23135;51.078;12.108;2022-11-15T15:05:38;11.10;;;6.82;;
37241;SDS011;23135;51.078;12.108;2022-11-15T15:08:08;17.77;;;12.27;;
37241;SDS011;23135;51.078;12.108;2022-11-15T15:10:35;65.13;;;33.33;;
37241;SDS011;23135;51.078;12.108;2022-11-15T15:13:03;17.83;;;10.07;;
37241;SDS011;23135;51.078;12.108;2022-11-15T15:15:34;9.60;;;4.38;;
37241;SDS011;23135;51.078;12.108;2022-11-15T15:18:02;4.73;;;3.53;;
37241;SDS011;23135;51.078;12.108;2022-11-15T15:20:29;5.35;;;2.33;;
37241;SDS011;23135;51.078;12.108;2022-11-15T15:22:59;9.68;;;5.15;;
37241;SDS011;23135;51.078;12.108;2022-11-15T15:25:32;8.88;;;3.55;;
37241;SDS011;23135;51.078;12.108;2022-11-15T15:27:59;1.38;;;0.75;;
37241;SDS011;23135;51.078;12.108;2022-11-15T15:30:26;3.85;;;1.75;;
37241;SDS011;23135;51.078;12.108;2022-11-15T15:32:53;2.50;;;2.30;;
37241;SDS011;23135;51.078;12.108;2022-11-15T15:35:19;2.15;;;1.08;;
37241;SDS011;23135;51.078;12.108;2022-11-15T15:37:45;4.28;;;0.95;;
37241;SDS011;23135;51.078;12.108;2022-11-15T15:42:38;14.88;;;3.33;;
37241;SDS011;23135;51.078;12.108;2022-11-15T15:45:04;14.93;;;3.72;;
37241;SDS011;23135;51.078;12.108;2022-11-15T15:47:30;52.40;;;7.55;;
37241;SDS011;23135;51.078;12.108;2022-11-15T15:49:55;52.67;;;5.85;;
37241;SDS011;23135;51.078;12.108;2022-11-15T15:52:21;90.45;;;41.95;;
37241;SDS011;23135;51.078;12.108;2022-11-15T15:54:47;30.23;;;11.45;;
37241;SDS011;23135;51.078;12.108;2022-11-15T15:57:12;10.50;;;4.45;;
37241;SDS011;23135;51.078;12.108;2022-11-15T15:59:39;3.50;;;2.10;;
37241;SDS011;23135;51.078;12.108;2022-11-15T16:02:05;10.98;;;2.35;;
37241;SDS011;23135;51.078;12.108;2022-11-15T16:04:31;4.72;;;1.50;;
37241;SDS011;23135;51.078;12.108;2022-11-15T16:07:00;3.80;;;1.95;;
37241;SDS011;23135;51.078;12.108;2022-11-15T16:09:26;3.22;;;1.80;;
37241;SDS011;23135;51.078;12.108;2022-11-15T16:12:10;9.07;;;3.20;;
37241;SDS011;23135;51.078;12.108;2022-11-15T16:14:36;5.60;;;3.50;;
37241;SDS011;23135;51.078;12.108;2022-11-15T16:17:01;7.50;;;3.28;;
37241;SDS011;23135;51.078;12.108;2022-11-15T16:19:28;10.68;;;2.88;;
37241;SDS011;23135;51.078;12.108;2022-11-15T16:21:54;7.53;;;4.07;;
37241;SDS011;23135;51.078;12.108;2022-11-15T16:24:20;14.45;;;5.80;;
37241;SDS011;23135;51.078;12.108;2022-11-15T16:26:46;258.38;;;116.07;;
37241;SDS011;23135;51.078;12.108;2022-11-15T16:29:13;192.15;;;84.25;;
37241;SDS011;23135;51.078;12.108;2022-11-15T16:31:39;271.33;;;127.03;;
37241;SDS011;23135;51.078;12.108;2022-11-15T16:34:04;193.60;;;88.15;;
37241;SDS011;23135;51.078;12.108;2022-11-15T16:36:32;49.15;;;24.42;;
37241;SDS011;23135;51.078;12.108;2022-11-15T16:38:59;89.85;;;54.22;;
37241;SDS011;23135;51.078;12.108;2022-11-15T16:41:28;14.45;;;8.32;;
37241;SDS011;23135;51.078;12.108;2022-11-15T16:43:54;10.32;;;5.40;;
37241;SDS011;23135;51.078;12.108;2022-11-15T16:48:47;7.45;;;3.35;;
37241;SDS011;23135;51.078;12.108;2022-11-15T16:51:14;6.82;;;2.80;;
37241;SDS011;23135;51.078;12.108;2022-11-15T16:53:40;5.10;;;3.13;;
37241;SDS011;23135;51.078;12.108;2022-11-15T16:56:21;5.35;;;2.25;;